createdAt,value
2023-05-06T00:01:23.181Z,98283.78
2023-05-06T00:04:11.002Z,98291.50
2023-05-06T00:07:02.596Z,98287.16
2023-05-06T00:09:50.449Z,98282.19
2023-05-06T00:12:38.457Z,98288.22
2023-05-06T00:15:26.182Z,98278.72
2023-05-06T00:18:15.250Z,98277.91
2023-05-06T00:21:03.437Z,98272.91
2023-05-06T00:23:52.829Z,98270.56
2023-05-06T00:26:40.638Z,98270.41
2023-05-06T00:29:28.487Z,98271.25
2023-05-06T00:32:16.386Z,98275.63
2023-05-06T00:35:04.556Z,98273.00
2023-05-06T00:37:59.163Z,98275.84
2023-05-06T00:40:49.102Z,98276.72
2023-05-06T00:43:37.392Z,98266.22
2023-05-06T00:46:25.677Z,98278.09
2023-05-06T00:49:13.919Z,98273.09
2023-05-06T00:52:02.224Z,98273.09
2023-05-06T00:54:50.599Z,98268.09
2023-05-06T00:57:40.889Z,98263.09
2023-05-06T01:00:28.983Z,98267.81
2023-05-06T01:03:17.264Z,98266.13
2023-05-06T01:06:13.023Z,98278.81
2023-05-06T01:09:08.743Z,98272.47
2023-05-06T01:12:01.154Z,98279.13
2023-05-06T01:15:01.214Z,98271.47
2023-05-06T01:17:54.722Z,98269.47
2023-05-06T01:20:44.227Z,98270.31
2023-05-06T01:23:52.038Z,98271.28
2023-05-06T01:26:42.405Z,98275.81
2023-05-06T01:29:30.773Z,98276.78
2023-05-06T01:32:42.643Z,98267.13
2023-05-06T01:35:38.982Z,98269.13
2023-05-06T01:38:36.508Z,98267.66
2023-05-06T01:41:26.231Z,98262.50
2023-05-06T01:44:15.983Z,98265.16
2023-05-06T01:47:04.097Z,98262.50
2023-05-06T01:49:52.194Z,98259.16
2023-05-06T01:52:40.348Z,98260.84
2023-05-06T01:55:30.249Z,98257.50
2023-05-06T01:58:18.210Z,98257.66
2023-05-06T02:01:06.141Z,98251.31
2023-05-06T02:03:57.162Z,98254.19
2023-05-06T02:06:45.238Z,98256.84
2023-05-06T02:09:33.282Z,98250.84
2023-05-06T02:12:24.562Z,98250.84
2023-05-06T02:15:12.935Z,98269.19
2023-05-06T02:18:02.722Z,98259.88
2023-05-06T02:20:50.991Z,98259.22
2023-05-06T02:23:39.133Z,98265.75
2023-05-06T02:26:27.161Z,98264.25
2023-05-06T02:29:16.181Z,98265.28
2023-05-06T02:32:04.226Z,98270.63
2023-05-06T02:34:53.524Z,98266.44
2023-05-06T02:37:41.351Z,98264.09
2023-05-06T02:40:29.595Z,98258.25
2023-05-06T02:43:17.277Z,98256.59
2023-05-06T02:46:06.673Z,98263.75
2023-05-06T02:48:54.441Z,98265.63
2023-05-06T02:51:42.583Z,98265.28
2023-05-06T02:54:30.412Z,98259.25
2023-05-06T02:57:18.508Z,98263.94
2023-05-06T03:00:10.911Z,98265.63
2023-05-06T03:03:00.371Z,98264.59
2023-05-06T03:05:48.223Z,98261.94
2023-05-06T03:08:36.236Z,98256.59
2023-05-06T03:11:23.999Z,98256.44
2023-05-06T03:14:12.149Z,98257.09
2023-05-06T03:17:00.059Z,98258.56
2023-05-06T03:19:50.464Z,98262.56
2023-05-06T03:22:38.291Z,98257.22
2023-05-06T03:25:26.219Z,98266.53
2023-05-06T03:28:14.295Z,98261.88
2023-05-06T03:31:02.784Z,98258.53
2023-05-06T03:33:50.362Z,98260.56
2023-05-06T03:36:39.710Z,98261.72
2023-05-06T03:39:27.624Z,98259.22
2023-05-06T03:42:16.230Z,98264.56
2023-05-06T03:45:04.974Z,98266.94
2023-05-06T03:47:53.005Z,98259.75
2023-05-06T03:50:41.357Z,98268.41
2023-05-06T03:53:30.865Z,98271.69
2023-05-06T03:56:18.878Z,98282.94
2023-05-06T03:59:06.649Z,98274.25
2023-05-06T04:01:54.580Z,98265.41
2023-05-06T04:04:42.604Z,98272.59
2023-05-06T04:07:31.030Z,98259.06
2023-05-06T04:10:20.403Z,98264.78
2023-05-06T04:13:08.316Z,98266.13
2023-05-06T04:15:56.882Z,98261.75
2023-05-06T04:18:46.118Z,98266.28
2023-05-06T04:21:34.202Z,98258.25
2023-05-06T04:24:21.902Z,98254.75
2023-05-06T04:27:11.178Z,98262.63
2023-05-06T04:29:59.116Z,98266.13
2023-05-06T04:32:47.386Z,98266.78
2023-05-06T04:35:36.672Z,98277.28
2023-05-06T04:38:25.820Z,98270.94
2023-05-06T04:41:13.980Z,98275.94
2023-05-06T04:44:03.660Z,98278.25
2023-05-06T04:46:51.948Z,98283.91
2023-05-06T04:49:39.837Z,98285.56
2023-05-06T04:52:27.765Z,98290.09
2023-05-06T04:55:15.751Z,98285.22
2023-05-06T04:58:03.422Z,98289.25
2023-05-06T05:00:52.836Z,98292.59
2023-05-06T05:03:43.343Z,98289.91
2023-05-06T05:06:31.996Z,98295.91
2023-05-06T05:09:19.947Z,98297.59
2023-05-06T05:12:11.302Z,98303.22
2023-05-06T05:14:59.336Z,98312.19
2023-05-06T05:17:49.023Z,98309.84
2023-05-06T05:20:36.864Z,98322.34
2023-05-06T05:23:24.707Z,98320.84
2023-05-06T05:26:12.645Z,98316.81
2023-05-06T05:29:00.960Z,98330.81
2023-05-06T05:31:48.872Z,98328.13
2023-05-06T05:34:41.132Z,98333.97
2023-05-06T05:37:29.297Z,98330.75
2023-05-06T05:40:17.108Z,98332.09
2023-05-06T05:43:05.130Z,98340.91
2023-05-06T05:45:53.154Z,98344.44
2023-05-06T05:48:41.510Z,98334.06
2023-05-06T05:51:31.100Z,98339.06
2023-05-06T05:54:19.077Z,98340.72
2023-05-06T05:57:13.017Z,98341.66
2023-05-06T06:00:02.146Z,98351.66
2023-05-06T06:02:50.241Z,98345.63
2023-05-06T06:05:38.582Z,98349.06
2023-05-06T06:08:55.294Z,98349.84
2023-05-06T06:11:43.594Z,98348.47
2023-05-06T06:14:31.470Z,98350.06
2023-05-06T06:17:19.542Z,98351.50
2023-05-06T06:20:09.131Z,98350.88
2023-05-06T06:22:56.868Z,98353.13
2023-05-06T06:25:46.160Z,98350.75
2023-05-06T06:28:34.021Z,98352.78
2023-05-06T06:31:21.930Z,98355.22
2023-05-06T06:34:12.494Z,98343.44
2023-05-06T06:37:00.237Z,98345.63
2023-05-06T06:39:48.294Z,98344.72
2023-05-06T06:42:38.009Z,98343.44
2023-05-06T06:45:25.872Z,98343.75
2023-05-06T06:48:14.052Z,98350.03
2023-05-06T06:51:02.335Z,98352.59
2023-05-06T06:53:50.739Z,98349.19
2023-05-06T06:56:38.772Z,98345.09
2023-05-06T06:59:28.123Z,98350.38
2023-05-06T07:02:15.958Z,98351.09
2023-05-06T07:05:04.044Z,98354.50
2023-05-06T07:07:51.661Z,98346.97
2023-05-06T07:10:39.710Z,98356.00
2023-05-06T07:13:27.780Z,98359.41
2023-05-06T07:16:17.320Z,98352.91
2023-05-06T07:19:05.296Z,98355.47
2023-05-06T07:21:53.162Z,98356.22
2023-05-06T07:24:41.249Z,98351.53
2023-05-06T07:27:30.796Z,98355.56
2023-05-06T07:30:21.039Z,98363.28
2023-05-06T07:33:12.513Z,98364.22
2023-05-06T07:36:00.608Z,98361.44
2023-05-06T07:38:48.470Z,98366.50
2023-05-06T07:41:37.215Z,98365.75
2023-05-06T07:44:25.365Z,98353.44
2023-05-06T07:47:13.528Z,98360.16
2023-05-06T07:50:02.882Z,98364.34
2023-05-06T07:52:50.977Z,98360.09
2023-05-06T07:55:39.051Z,98364.06
2023-05-06T07:58:27.074Z,98365.78
2023-05-06T08:01:14.986Z,98361.28
2023-05-06T08:04:03.216Z,98363.00
2023-05-06T08:06:52.359Z,98366.75
2023-05-06T08:09:40.450Z,98364.72
2023-05-06T08:12:28.460Z,98367.66
2023-05-06T08:15:16.615Z,98363.91
2023-05-06T08:18:17.906Z,98369.09
2023-05-06T08:21:09.336Z,98370.53
2023-05-06T08:23:58.799Z,98365.09
2023-05-06T08:26:46.633Z,98368.72
2023-05-06T08:29:34.629Z,98367.00
2023-05-06T08:32:22.707Z,98363.94
2023-05-06T08:35:11.523Z,98363.81
2023-05-06T08:37:59.353Z,98367.34
2023-05-06T08:40:50.872Z,98367.38
2023-05-06T08:43:44.320Z,98364.84
2023-05-06T08:46:32.283Z,98355.09
2023-05-06T08:49:20.174Z,98364.44
2023-05-06T08:52:08.133Z,98355.41
2023-05-06T08:55:01.181Z,98356.97
2023-05-06T08:57:53.926Z,98352.63
2023-05-06T09:00:42.209Z,98354.38
2023-05-06T09:03:30.248Z,98345.47
2023-05-06T09:06:18.360Z,98335.13
2023-05-06T09:09:06.699Z,98337.66
2023-05-06T09:11:57.475Z,98343.38
2023-05-06T09:14:50.414Z,98341.47
2023-05-06T09:17:38.606Z,98329.25
2023-05-06T09:20:26.908Z,98333.78
2023-05-06T09:23:15.820Z,98327.81
2023-05-06T09:26:03.682Z,98324.03
2023-05-06T09:28:54.843Z,98321.84
2023-05-06T09:31:46.187Z,98319.44
2023-05-06T09:34:34.330Z,98315.84
2023-05-06T09:37:22.028Z,98324.09
2023-05-06T09:40:11.038Z,98313.50
2023-05-06T09:43:00.276Z,98317.34
2023-05-06T09:45:49.490Z,98313.69
2023-05-06T09:48:40.890Z,98310.72
2023-05-06T09:51:29.023Z,98315.78
2023-05-06T09:54:18.548Z,98311.38
2023-05-06T09:57:06.996Z,98309.34
2023-05-06T09:59:59.216Z,98302.22
2023-05-06T10:02:47.968Z,98302.28
2023-05-06T10:05:38.694Z,98298.34
2023-05-06T10:08:27.386Z,98301.47
2023-05-06T10:11:16.234Z,98304.13
2023-05-06T10:14:05.182Z,98295.44
2023-05-06T10:16:54.632Z,98289.00
2023-05-06T10:19:46.186Z,98282.16
2023-05-06T10:22:49.875Z,98283.09
2023-05-06T10:25:40.036Z,98286.47
2023-05-06T10:28:31.481Z,98283.19
2023-05-06T10:31:19.886Z,98278.88
2023-05-06T10:34:10.984Z,98277.25
2023-05-06T10:37:01.459Z,98272.66
2023-05-06T10:39:51.042Z,98275.34
2023-05-06T10:42:38.703Z,98278.38
2023-05-06T10:45:26.858Z,98272.91
2023-05-06T10:48:15.002Z,98271.75
2023-05-06T10:51:22.451Z,98265.72
2023-05-06T10:54:11.504Z,98274.44
2023-05-06T10:57:12.826Z,98265.59
2023-05-06T11:00:01.248Z,98265.03
2023-05-06T11:02:56.362Z,98268.28
2023-05-06T11:05:51.665Z,98271.50
2023-05-06T11:08:48.501Z,98272.59
2023-05-06T11:12:00.338Z,98269.53
2023-05-06T11:14:50.400Z,98261.84
2023-05-06T11:17:38.680Z,98259.13
2023-05-06T11:20:27.322Z,98266.84
2023-05-06T11:23:15.279Z,98268.72
2023-05-06T11:26:08.101Z,98267.63
2023-05-06T11:28:56.557Z,98276.63
2023-05-06T11:31:47.008Z,98270.41
2023-05-06T11:34:36.803Z,98271.03
2023-05-06T11:37:27.256Z,98274.13
2023-05-06T11:40:18.287Z,98262.41
2023-05-06T11:43:13.595Z,98263.31
2023-05-06T11:46:01.596Z,98255.47
2023-05-06T11:48:51.765Z,98252.47
2023-05-06T11:51:39.716Z,98265.88
2023-05-06T11:54:29.107Z,98261.47
2023-05-06T11:57:17.029Z,98260.97
2023-05-06T12:00:07.312Z,98264.78
2023-05-06T12:03:16.070Z,98246.69
2023-05-06T12:06:05.805Z,98251.34
2023-05-06T12:08:56.028Z,98247.22
2023-05-06T12:11:45.069Z,98244.22
2023-05-06T12:14:33.141Z,98243.91
2023-05-06T12:17:21.494Z,98241.66
2023-05-06T12:20:13.103Z,98241.63
2023-05-06T12:23:09.205Z,98233.91
2023-05-06T12:26:04.806Z,98237.13
2023-05-06T12:29:08.332Z,98229.41
2023-05-06T12:32:10.282Z,98245.75
2023-05-06T12:34:59.502Z,98239.72
2023-05-06T12:37:47.377Z,98239.16
2023-05-06T12:40:36.836Z,98233.59
2023-05-06T12:43:31.319Z,98236.03
2023-05-06T12:46:19.900Z,98231.81
2023-05-06T12:49:09.806Z,98218.91
2023-05-06T12:52:08.563Z,98231.25
2023-05-06T12:54:56.624Z,98230.66
2023-05-06T12:57:46.095Z,98232.38
2023-05-06T13:00:33.956Z,98229.03
2023-05-06T13:03:22.146Z,98224.06
2023-05-06T13:06:09.898Z,98227.16
2023-05-06T13:08:58.889Z,98224.13
2023-05-06T13:11:46.791Z,98215.94
2023-05-06T13:14:38.546Z,98218.34
2023-05-06T13:17:28.689Z,98223.28
2023-05-06T13:20:17.031Z,98216.97
2023-05-06T13:23:05.082Z,98213.00
2023-05-06T13:26:03.571Z,98212.94
2023-05-06T13:28:53.361Z,98219.22
2023-05-06T13:31:42.740Z,98213.22
2023-05-06T13:34:30.735Z,98221.69
2023-05-06T13:37:18.797Z,98217.25
2023-05-06T13:40:08.587Z,98211.72
2023-05-06T13:42:56.463Z,98214.91
2023-05-06T13:45:45.043Z,98217.69
2023-05-06T13:48:34.413Z,98203.25
2023-05-06T13:51:22.333Z,98208.69
2023-05-06T13:54:10.431Z,98206.25
2023-05-06T13:56:58.977Z,98195.41
2023-05-06T13:59:46.913Z,98193.06
2023-05-06T14:02:35.037Z,98185.81
2023-05-06T14:05:24.387Z,98183.00
2023-05-06T14:08:12.264Z,98183.88
2023-05-06T14:11:00.343Z,98193.59
2023-05-06T14:13:49.165Z,98186.22
2023-05-06T14:16:37.233Z,98176.53
2023-05-06T14:19:25.006Z,98179.75
2023-05-06T14:22:14.351Z,98188.16
2023-05-06T14:25:04.899Z,98175.41
2023-05-06T14:27:53.008Z,98188.06
2023-05-06T14:30:41.087Z,98176.81
2023-05-06T14:33:28.794Z,98179.69
2023-05-06T14:36:20.000Z,98174.56
2023-05-06T14:39:09.142Z,98172.75
2023-05-06T14:41:57.502Z,98174.97
2023-05-06T14:44:48.551Z,98185.38
2023-05-06T14:47:36.410Z,98177.75
2023-05-06T14:50:24.148Z,98175.59
2023-05-06T14:53:11.826Z,98170.38
2023-05-06T14:56:01.015Z,98172.25
2023-05-06T14:58:48.986Z,98171.13
2023-05-06T15:01:37.084Z,98170.56
2023-05-06T15:04:24.922Z,98169.13
2023-05-06T15:07:13.032Z,98174.28
2023-05-06T15:10:00.974Z,98170.47
2023-05-06T15:12:50.412Z,98169.13
2023-05-06T15:15:38.522Z,98157.44
2023-05-06T15:18:26.558Z,98158.84
2023-05-06T15:21:14.457Z,98154.75
2023-05-06T15:24:02.739Z,98152.59
2023-05-06T15:26:50.792Z,98159.13
2023-05-06T15:29:40.946Z,98157.75
2023-05-06T15:32:28.566Z,98146.47
2023-05-06T15:35:16.962Z,98141.41
2023-05-06T15:38:05.322Z,98145.47
2023-05-06T15:40:53.956Z,98147.22
2023-05-06T15:43:41.528Z,98144.88
2023-05-06T15:46:31.961Z,98149.81
2023-05-06T15:49:47.445Z,98153.81
2023-05-06T15:52:27.899Z,98141.81
2023-05-06T15:55:17.070Z,98140.25
2023-05-06T15:58:05.196Z,98140.06
2023-05-06T16:00:52.791Z,98140.03
2023-05-06T16:03:42.507Z,98138.34
2023-05-06T16:06:30.951Z,98143.72
2023-05-06T16:09:18.650Z,98143.78
2023-05-06T16:12:07.191Z,98145.41
2023-05-06T16:14:54.842Z,98145.88
2023-05-06T16:17:52.147Z,98147.53
2023-05-06T16:20:46.323Z,98142.13
2023-05-06T16:23:34.011Z,98146.59
2023-05-06T16:26:22.119Z,98132.03
2023-05-06T16:29:10.198Z,98142.13
2023-05-06T16:31:58.310Z,98142.94
2023-05-06T16:34:46.299Z,98146.25
2023-05-06T16:37:35.479Z,98142.22
2023-05-06T16:40:23.482Z,98149.91
2023-05-06T16:43:11.704Z,98151.75
2023-05-06T16:45:59.644Z,98147.28
2023-05-06T16:48:47.793Z,98147.84
2023-05-06T16:51:35.501Z,98147.16
2023-05-06T16:54:25.522Z,98146.19
2023-05-06T16:57:13.393Z,98140.78
2023-05-06T17:00:01.897Z,98144.19
2023-05-06T17:02:50.179Z,98151.34
2023-05-06T17:05:38.038Z,98153.03
2023-05-06T17:08:26.826Z,98148.69
2023-05-06T17:11:16.393Z,98146.00
2023-05-06T17:14:04.100Z,98147.66
2023-05-06T17:16:52.530Z,98146.53
2023-05-06T17:19:40.586Z,98148.69
2023-05-06T17:22:28.770Z,98142.63
2023-05-06T17:25:16.611Z,98138.16
2023-05-06T17:28:05.977Z,98139.69
2023-05-06T17:30:53.776Z,98146.03
2023-05-06T17:33:41.604Z,98143.25
2023-05-06T17:36:29.459Z,98137.41
2023-05-06T17:39:17.752Z,98149.53
2023-05-06T17:42:06.019Z,98148.78
2023-05-06T17:44:55.132Z,98148.28
2023-05-06T17:47:42.786Z,98152.41
2023-05-06T17:50:30.962Z,98150.44
2023-05-06T17:53:18.741Z,98152.94
2023-05-06T17:56:07.086Z,98155.13
2023-05-06T17:58:54.813Z,98154.84
2023-05-06T18:01:44.094Z,98161.63
2023-05-06T18:04:32.146Z,98163.75
2023-05-06T18:07:20.473Z,98153.41
2023-05-06T18:10:09.806Z,98158.47
2023-05-06T18:12:57.911Z,98157.28
2023-05-06T18:15:45.589Z,98159.00
2023-05-06T18:18:35.106Z,98156.16
2023-05-06T18:21:23.440Z,98155.75
2023-05-06T18:24:16.486Z,98157.44
2023-05-06T18:27:05.146Z,98169.97
2023-05-06T18:29:54.755Z,98167.84
2023-05-06T18:32:42.814Z,98173.81
2023-05-06T18:35:32.067Z,98174.38
2023-05-06T18:38:20.146Z,98178.22
2023-05-06T18:41:09.155Z,98185.81
2023-05-06T18:43:57.051Z,98183.56
2023-05-06T18:46:45.108Z,98181.94
2023-05-06T18:49:33.175Z,98187.38
2023-05-06T18:52:22.918Z,98191.16
2023-05-06T18:55:11.300Z,98198.63
2023-05-06T18:57:59.474Z,98195.88
2023-05-06T19:00:47.409Z,98206.63
2023-05-06T19:03:36.543Z,98197.22
2023-05-06T19:06:24.583Z,98199.63
2023-05-06T19:09:13.554Z,98206.78
2023-05-06T19:12:01.257Z,98204.81
2023-05-06T19:14:49.246Z,98205.34
2023-05-06T19:17:37.177Z,98211.22
2023-05-06T19:20:24.999Z,98209.59
2023-05-06T19:23:13.020Z,98209.03
2023-05-06T19:26:02.760Z,98210.94
2023-05-06T19:28:51.773Z,98204.75
2023-05-06T19:31:39.946Z,98209.13
2023-05-06T19:34:27.689Z,98205.44
2023-05-06T19:37:15.591Z,98216.81
2023-05-06T19:40:04.191Z,98219.97
2023-05-06T19:42:53.774Z,98218.06
2023-05-06T19:45:41.806Z,98218.25
2023-05-06T19:48:30.410Z,98214.31
2023-05-06T19:51:18.290Z,98220.72
2023-05-06T19:54:06.279Z,98222.59
2023-05-06T19:56:54.497Z,98230.84
2023-05-06T19:59:43.621Z,98224.63
2023-05-06T20:02:31.650Z,98225.44
2023-05-06T20:05:19.658Z,98225.44
2023-05-06T20:08:10.766Z,98225.41
2023-05-06T20:10:59.156Z,98228.50
2023-05-06T20:13:47.091Z,98229.28
2023-05-06T20:16:36.495Z,98223.72
2023-05-06T20:19:29.194Z,98230.72
2023-05-06T20:22:17.255Z,98227.59
2023-05-06T20:25:13.022Z,98233.75
2023-05-06T20:28:01.925Z,98233.50
2023-05-06T20:30:51.347Z,98234.34
2023-05-06T20:33:40.699Z,98229.75
2023-05-06T20:36:29.011Z,98235.94
2023-05-06T20:39:16.721Z,98232.19
2023-05-06T20:42:04.604Z,98232.13
2023-05-06T20:44:52.978Z,98236.25
2023-05-06T20:47:40.774Z,98228.78
2023-05-06T20:50:30.826Z,98235.59
2023-05-06T20:53:18.779Z,98233.72
2023-05-06T20:56:16.929Z,98240.50
2023-05-06T20:59:05.800Z,98240.25
2023-05-06T21:01:53.597Z,98241.88
2023-05-06T21:04:42.239Z,98245.16
2023-05-06T21:07:31.848Z,98249.66
2023-05-06T21:10:19.899Z,98257.66
2023-05-06T21:13:08.033Z,98256.97
2023-05-06T21:15:56.118Z,98254.84
2023-05-06T21:18:44.390Z,98259.50
2023-05-06T21:21:33.292Z,98255.09
2023-05-06T21:24:22.438Z,98261.47
2023-05-06T21:27:10.477Z,98260.53
2023-05-06T21:29:58.466Z,98255.31
2023-05-06T21:32:46.710Z,98261.00
2023-05-06T21:35:34.677Z,98261.31
2023-05-06T21:38:22.517Z,98259.78
2023-05-06T21:41:12.083Z,98270.63
2023-05-06T21:44:00.105Z,98259.34
2023-05-06T21:46:48.382Z,98265.22
2023-05-06T21:49:36.199Z,98258.28
2023-05-06T21:52:24.617Z,98262.06
2023-05-06T21:55:12.675Z,98262.19
2023-05-06T21:58:02.388Z,98266.63
2023-05-06T22:00:50.304Z,98264.03
2023-05-06T22:03:38.413Z,98267.81
2023-05-06T22:06:26.127Z,98267.06
2023-05-06T22:09:14.365Z,98263.66
2023-05-06T22:12:06.494Z,98262.75
2023-05-06T22:14:55.956Z,98272.47
2023-05-06T22:17:43.670Z,98276.91
2023-05-06T22:20:32.400Z,98272.28
2023-05-06T22:23:21.791Z,98275.06
2023-05-06T22:26:11.334Z,98276.78
2023-05-06T22:28:59.519Z,98282.19
2023-05-06T22:31:48.521Z,98276.94
2023-05-06T22:34:36.312Z,98277.78
2023-05-06T22:37:24.328Z,98283.00
2023-05-06T22:40:13.281Z,98282.41
2023-05-06T22:43:00.972Z,98277.78
2023-05-06T22:45:48.932Z,98276.47
2023-05-06T22:48:38.373Z,98278.84
2023-05-06T22:51:26.247Z,98273.38
2023-05-06T22:54:14.126Z,98277.78
2023-05-06T22:57:01.996Z,98275.81
2023-05-06T22:59:49.876Z,98280.00
2023-05-06T23:02:37.911Z,98274.19
2023-05-06T23:05:27.004Z,98279.38
2023-05-06T23:08:14.962Z,98275.41
2023-05-06T23:11:02.966Z,98277.75
2023-05-06T23:13:51.066Z,98281.78
2023-05-06T23:16:39.146Z,98282.47
2023-05-06T23:19:26.908Z,98276.44
2023-05-06T23:22:16.441Z,98280.13
2023-05-06T23:25:04.140Z,98281.63
2023-05-06T23:27:52.000Z,98285.97
2023-05-06T23:30:40.108Z,98288.31
2023-05-06T23:33:28.191Z,98283.50
2023-05-06T23:36:16.763Z,98287.88
2023-05-06T23:39:06.022Z,98282.88
2023-05-06T23:41:53.779Z,98288.56
2023-05-06T23:44:41.656Z,98297.94
2023-05-06T23:47:29.776Z,98293.56
2023-05-06T23:50:17.932Z,98283.91
2023-05-06T23:53:05.641Z,98292.94
2023-05-06T23:55:54.867Z,98289.91
2023-05-06T23:58:42.788Z,98290.25
